Time;durP1;ratioP1;P1;durP2;ratioP2;P2;SDS_P1;SDS_P2;PMS_P1;PMS_P2;Temp;Humidity;BMP_temperature;BMP_pressure;BME280_temperature;BME280_humidity;BME280_pressure;Samples;Min_cycle;Max_cycle;Signal;HPM_P1;HPM_P2
2022/01/24 00:00:07;;;;;;;46.40;31.92;;;;;;;3.80;94.69;103478.06;1043772;28;20812;-78
2022/01/24 00:00:39;;;;;;;56.22;34.60;;;;;;;3.83;94.04;103480.47;1043780;28;20792;-78
2022/01/24 00:01:12;;;;;;;33.83;23.67;;;;;;;3.78;94.38;103479.97;1047926;28;20384;-78
2022/01/24 00:01:45;;;;;;;32.22;21.23;;;;;;;3.76;94.20;103481.88;1048008;28;20688;-78
2022/01/24 00:02:17;;;;;;;27.15;20.63;;;;;;;3.76;94.45;103473.97;1046779;28;20342;-78
2022/01/24 00:02:48;;;;;;;30.98;19.50;;;;;;;3.75;94.71;103481.97;1043767;28;20330;-78
2022/01/24 00:03:20;;;;;;;32.22;22.67;;;;;;;3.69;94.85;103472.72;1043390;28;20311;-78
2022/01/24 00:03:56;;;;;;;33.20;23.17;;;;;;;3.70;94.60;103475.25;1043725;28;20308;-80
2022/01/24 00:04:28;;;;;;;30.83;21.52;;;;;;;3.71;94.85;103482.19;1043001;28;20720;-80
2022/01/24 00:04:59;;;;;;;33.22;23.77;;;;;;;3.72;94.79;103472.50;1039330;28;20312;-81
2022/01/24 00:05:31;;;;;;;26.98;20.02;;;;;;;3.84;94.86;103476.94;1031511;28;20385;-80
2022/01/24 00:06:03;;;;;;;29.45;21.70;;;;;;;3.81;95.12;103481.53;1027374;28;20313;-80
2022/01/24 00:06:35;;;;;;;36.30;23.63;;;;;;;3.68;94.89;103474.50;1028127;28;20672;-81
2022/01/24 00:07:06;;;;;;;32.80;23.85;;;;;;;3.73;95.06;103471.53;1028555;28;20314;-80
2022/01/24 00:07:38;;;;;;;34.53;25.02;;;;;;;3.74;95.18;103475.88;1036340;28;20311;-80
2022/01/24 00:08:09;;;;;;;32.60;23.65;;;;;;;3.71;94.84;103482.19;1035333;28;20319;-80
2022/01/24 00:08:41;;;;;;;35.22;24.50;;;;;;;3.74;94.53;103478.50;1028143;28;20688;-80
2022/01/24 00:09:13;;;;;;;34.28;24.27;;;;;;;3.73;94.68;103482.09;1027493;28;20310;-80
2022/01/24 00:09:44;;;;;;;35.92;27.00;;;;;;;3.74;95.20;103481.13;1027863;28;20314;-80
2022/01/24 00:10:20;;;;;;;42.22;29.40;;;;;;;3.81;94.79;103479.75;1032870;28;20363;-81
2022/01/24 00:10:53;;;;;;;33.88;25.50;;;;;;;3.84;95.06;103479.56;1036573;28;20315;-80
2022/01/24 00:11:35;;;;;;;41.22;29.10;;;;;;;3.80;94.41;103490.41;1039619;28;20300;-80
2022/01/24 00:12:24;;;;;;;44.22;27.95;;;;;;;3.86;93.94;103477.66;1035263;28;20320;-80
2022/01/24 00:13:33;;;;;;;37.90;26.13;;;;;;;3.84;94.20;103479.56;1039419;28;20318;-80
2022/01/24 00:14:37;;;;;;;33.63;23.30;;;;;;;3.82;94.09;103478.81;1039041;28;20481;-80
2022/01/24 00:15:06;;;;;;;41.78;26.95;;;;;;;3.83;93.96;103480.47;1039623;28;20694;-80
2022/01/24 00:18:11;;;;;;;33.78;21.80;;;;;;;3.70;95.46;103479.66;1026930;28;20381;-81
2022/01/24 00:26:44;;;;;;;40.67;27.05;;;;;;;3.56;97.62;103472.72;1039627;28;20304;-78
2022/01/24 00:26:57;;;;;;;44.60;28.67;;;;;;;3.65;97.52;103468.59;1040033;28;20666;-78
2022/01/24 00:27:29;;;;;;;44.20;27.90;;;;;;;3.63;97.71;103463.44;1039759;28;20312;-78
2022/01/24 00:28:00;;;;;;;42.00;27.50;;;;;;;3.63;97.35;103465.22;1039453;28;20304;-79
2022/01/24 00:28:32;;;;;;;43.15;26.58;;;;;;;3.60;97.36;103460.19;1035738;28;20300;-78
2022/01/24 00:29:03;;;;;;;36.40;26.40;;;;;;;3.60;97.76;103468.09;1035864;28;20319;-78
2022/01/24 00:29:35;;;;;;;50.00;29.20;;;;;;;3.53;97.94;103462.38;1039620;28;20304;-78
2022/01/24 00:30:07;;;;;;;46.33;27.88;;;;;;;3.55;98.04;103459.63;1040336;28;20319;-77
2022/01/24 00:30:38;;;;;;;46.60;30.35;;;;;;;3.48;97.55;103464.47;1039823;28;20308;-78
2022/01/24 00:31:10;;;;;;;45.28;30.80;;;;;;;3.47;97.58;103462.78;1040489;28;20343;-78
2022/01/24 00:31:42;;;;;;;44.38;30.58;;;;;;;3.53;97.60;103461.53;1040539;28;20312;-77
2022/01/24 00:32:14;;;;;;;48.25;31.00;;;;;;;3.53;97.58;103459.72;1036788;28;20316;-77
2022/01/24 00:32:45;;;;;;;43.42;30.35;;;;;;;3.55;97.60;103459.63;1036367;28;20308;-78
2022/01/24 00:33:19;;;;;;;49.03;34.58;;;;;;;3.61;97.75;103467.13;1036013;28;20806;-77
2022/01/24 00:33:50;;;;;;;46.97;33.72;;;;;;;3.61;97.42;103464.50;1036190;28;20309;-78
2022/01/24 00:34:25;;;;;;;44.35;34.00;;;;;;;3.55;97.28;103470.16;1032845;28;20675;-77
2022/01/24 00:34:56;;;;;;;44.95;32.67;;;;;;;3.57;97.26;103460.41;1037672;28;20327;-78
2022/01/24 00:35:28;;;;;;;48.47;33.83;;;;;;;3.57;97.52;103463.03;1036230;28;20316;-78
2022/01/24 00:35:59;;;;;;;50.78;35.47;;;;;;;3.56;97.71;103461.31;1033199;28;20309;-78
2022/01/24 00:36:31;;;;;;;50.05;36.70;;;;;;;3.57;97.75;103470.94;1036479;28;20349;-78
2022/01/24 00:37:03;;;;;;;49.78;37.83;;;;;;;3.56;97.71;103461.31;1032757;28;20435;-78
2022/01/24 00:37:34;;;;;;;53.22;38.10;;;;;;;3.56;97.95;103458.69;1032890;28;20309;-77
2022/01/24 00:38:06;;;;;;;49.20;35.78;;;;;;;3.58;97.78;103462.09;1036471;28;20675;-77
2022/01/24 00:38:37;;;;;;;59.85;39.70;;;;;;;3.59;97.65;103455.84;1032696;28;20316;-78
2022/01/24 00:39:09;;;;;;;64.63;44.45;;;;;;;3.60;97.38;103457.53;1037013;28;20435;-80
2022/01/24 00:39:42;;;;;;;60.05;40.90;;;;;;;3.63;97.34;103459.97;1039966;28;20315;-80
2022/01/24 00:40:14;;;;;;;50.47;38.95;;;;;;;3.64;97.03;103459.00;1037210;28;20308;-80
2022/01/24 00:40:48;;;;;;;58.20;41.65;;;;;;;3.56;96.79;103458.69;1036168;28;20309;-80
2022/01/24 00:41:21;;;;;;;59.50;39.03;;;;;;;3.57;96.53;103457.75;1036362;28;20423;-80
2022/01/24 00:42:18;;;;;;;58.65;42.53;;;;;;;3.56;96.56;103456.03;1037060;28;20444;-80
2022/01/24 00:42:54;;;;;;;59.05;39.55;;;;;;;3.54;96.18;103463.22;1040288;28;20312;-80
2022/01/24 00:43:49;;;;;;;58.47;41.35;;;;;;;3.61;95.85;103459.22;1040037;28;20307;-80
2022/01/24 00:44:45;;;;;;;60.67;41.70;;;;;;;3.60;96.14;103460.19;1040483;28;20300;-80
2022/01/24 00:45:28;;;;;;;65.90;38.47;;;;;;;3.58;95.94;103460.28;1040328;28;20304;-80
2022/01/24 00:46:15;;;;;;;50.10;32.17;;;;;;;3.59;96.15;103455.84;1036180;28;20328;-79
2022/01/24 00:47:00;;;;;;;52.25;34.47;;;;;;;3.59;96.38;103458.50;1039475;28;20674;-80
2022/01/24 00:48:08;;;;;;;56.00;34.80;;;;;;;3.59;96.60;103461.13;1038218;28;20814;-80
2022/01/24 00:49:12;;;;;;;50.10;31.08;;;;;;;3.58;96.58;103460.28;1036395;28;20308;-80
2022/01/24 00:49:51;;;;;;;52.72;32.03;;;;;;;3.52;96.79;103455.41;1040548;28;20311;-80
2022/01/24 00:54:42;;;;;;;54.85;34.05;;;;;;;3.70;96.58;103458.59;1031372;28;20046;-80
2022/01/24 00:54:52;;;;;;;51.58;33.50;;;;;;;3.79;95.46;103451.81;1040376;28;20912;-80
2022/01/24 00:55:24;;;;;;;53.35;34.67;;;;;;;3.85;95.48;103456.69;1040470;28;20315;-80
2022/01/24 00:55:57;;;;;;;50.13;34.97;;;;;;;3.79;95.01;103455.28;1040891;28;20304;-81
2022/01/24 00:56:28;;;;;;;54.70;36.65;;;;;;;3.72;95.16;103459.31;1044168;28;20311;-80
2022/01/24 00:57:00;;;;;;;56.75;34.65;;;;;;;3.70;94.99;103455.94;1040447;28;20308;-79
2022/01/24 00:57:31;;;;;;;53.28;36.78;;;;;;;3.70;95.16;103453.31;1036284;28;20309;-80
2022/01/24 00:58:03;;;;;;;58.58;37.22;;;;;;;3.71;95.11;103455.84;1036053;28;20319;-80
2022/01/24 00:58:34;;;;;;;58.28;36.80;;;;;;;3.70;95.55;103453.31;1036845;28;20331;-80
2022/01/24 00:59:06;;;;;;;55.97;38.95;;;;;;;3.70;95.52;103462.06;1040257;28;20307;-78
2022/01/24 00:59:38;;;;;;;61.72;39.63;;;;;;;3.67;95.43;103451.72;1040371;28;20303;-77
2022/01/24 01:00:12;;;;;;;58.65;37.80;;;;;;;3.68;95.85;103455.22;1036189;28;20881;-78
2022/01/24 01:00:44;;;;;;;55.65;37.03;;;;;;;3.68;95.96;103456.06;1032055;28;20938;-79
2022/01/24 01:01:16;;;;;;;53.30;37.33;;;;;;;3.69;96.02;103459.53;1033141;28;20381;-80
2022/01/24 01:01:47;;;;;;;55.40;38.33;;;;;;;3.66;95.96;103457.13;1036842;28;20648;-80
2022/01/24 01:02:19;;;;;;;58.67;37.25;;;;;;;3.65;96.35;103463.34;1040728;28;20304;-80
2022/01/24 01:02:51;;;;;;;54.20;39.47;;;;;;;3.65;96.57;103455.44;1040011;28;20312;-80
2022/01/24 01:03:24;;;;;;;56.35;39.35;;;;;;;3.62;96.30;103453.00;1040467;28;20310;-80
2022/01/24 01:03:55;;;;;;;60.95;41.20;;;;;;;3.61;96.77;103459.22;1035792;28;20319;-79
2022/01/24 01:04:36;;;;;;;58.20;41.33;;;;;;;3.59;96.60;103456.69;1036185;28;20309;-80
2022/01/24 01:05:42;;;;;;;52.13;37.67;;;;;;;3.57;97.09;103460.41;1036474;28;20316;-80
2022/01/24 01:06:15;;;;;;;50.70;34.88;;;;;;;3.59;97.67;103461.13;1032344;28;20381;-80
2022/01/24 01:06:48;;;;;;;59.33;38.35;;;;;;;3.60;97.35;103462.81;1030346;28;20302;-80
2022/01/24 01:18:09;;;;;;;46.35;30.88;;;;;;;3.65;95.17;103450.16;1041523;28;20366;-79
2022/01/24 01:18:42;;;;;;;52.72;34.08;;;;;;;3.61;95.03;103459.22;1040633;28;20304;-79
2022/01/24 01:19:14;;;;;;;56.08;36.58;;;;;;;3.63;94.94;103457.31;1039985;28;20304;-78
2022/01/24 01:19:46;;;;;;;63.58;39.70;;;;;;;3.71;94.98;103442.66;1040478;28;20308;-78
2022/01/24 01:20:23;;;;;;;60.40;37.83;;;;;;;3.75;94.16;103456.47;1040140;28;20320;-78
2022/01/24 01:21:38;;;;;;;59.97;38.05;;;;;;;3.69;94.20;103454.25;1040369;28;20343;-78
2022/01/24 01:22:09;;;;;;;59.30;37.45;;;;;;;3.71;94.68;103449.72;1036118;28;20313;-78
2022/01/24 01:22:41;;;;;;;60.83;39.15;;;;;;;3.78;93.65;103453.59;1034866;28;20304;-78
2022/01/24 01:23:12;;;;;;;56.42;36.47;;;;;;;3.68;93.58;103450.78;1036085;28;20319;-77
2022/01/24 01:23:52;;;;;;;59.83;38.80;;;;;;;3.95;93.54;103447.16;1032437;28;20309;-78
2022/01/24 01:24:25;;;;;;;57.58;35.80;;;;;;;3.91;93.25;103446.53;1037574;28;20315;-77
2022/01/24 01:24:57;;;;;;;61.47;37.88;;;;;;;3.97;92.88;103440.81;1040312;28;20308;-78
2022/01/24 01:25:28;;;;;;;57.40;38.47;;;;;;;3.91;92.95;103443.06;1037890;28;20667;-78
2022/01/24 01:26:04;;;;;;;61.08;39.58;;;;;;;3.82;92.57;103452.44;1040831;28;20677;-78
2022/01/24 01:26:42;;;;;;;60.00;38.63;;;;;;;3.77;93.09;103441.38;1044301;28;20303;-77
2022/01/24 01:27:22;;;;;;;61.65;39.45;;;;;;;3.76;93.27;103438.84;1040390;28;20674;-78
2022/01/24 01:27:54;;;;;;;60.03;38.80;;;;;;;3.77;93.84;103446.66;1036142;28;20335;-78
2022/01/24 01:28:27;;;;;;;61.55;40.10;;;;;;;3.75;93.92;103435.38;1038771;28;20310;-78
2022/01/24 01:29:15;;;;;;;59.63;40.42;;;;;;;3.73;93.85;103447.81;1043124;28;20315;-77
2022/01/24 01:30:15;;;;;;;59.78;40.47;;;;;;;3.72;94.45;103438.22;1044700;28;20691;-78
2022/01/24 01:30:44;;;;;;;61.28;38.70;;;;;;;3.69;94.45;103441.09;1044455;28;20307;-78
2022/01/24 01:31:29;;;;;;;56.58;37.53;;;;;;;3.70;94.52;103443.59;1044527;28;20325;-78
2022/01/24 01:32:14;;;;;;;53.22;36.67;;;;;;;3.73;94.44;103438.13;1044128;28;20331;-78
2022/01/24 01:32:58;;;;;;;60.03;36.42;;;;;;;3.72;94.74;103441.72;1045071;28;20361;-78
2022/01/24 01:37:46;;;;;;;53.50;34.80;;;;;;;3.65;94.79;103444.88;1031638;28;20313;-78
2022/01/24 01:53:03;;;;;;;52.13;31.35;;;;;;;3.57;97.06;103437.53;1032703;28;20309;-80
2022/01/24 01:55:44;;;;;;;55.30;32.63;;;;;;;3.44;97.42;103436.66;1035568;28;20308;-80
2022/01/24 01:56:16;;;;;;;53.70;35.50;;;;;;;3.46;97.28;103433.91;1037092;28;20726;-79
2022/01/24 01:56:47;;;;;;;58.88;36.47;;;;;;;3.50;97.66;103435.38;1036689;28;20321;-79
2022/01/24 01:57:21;;;;;;;57.30;36.70;;;;;;;3.51;97.68;103431.81;1036055;28;20311;-80
2022/01/24 01:57:52;;;;;;;56.45;36.35;;;;;;;3.52;97.47;103439.59;1031911;28;20316;-80
2022/01/24 01:58:25;;;;;;;56.60;38.67;;;;;;;3.55;97.57;103433.28;1032543;28;20672;-80
2022/01/24 01:58:57;;;;;;;54.97;37.47;;;;;;;3.52;97.46;103431.69;1032792;28;20311;-78
2022/01/24 01:59:29;;;;;;;55.15;37.75;;;;;;;3.53;97.89;103430.75;1032566;28;20313;-78
2022/01/24 02:00:00;;;;;;;63.47;42.60;;;;;;;3.52;97.44;103434.34;1031726;28;20312;-78
2022/01/24 02:00:33;;;;;;;57.75;40.53;;;;;;;3.51;97.60;103439.72;1032593;28;20672;-78
2022/01/24 02:01:05;;;;;;;58.13;41.65;;;;;;;3.49;97.94;103436.34;1032584;28;20664;-78
2022/01/24 02:01:37;;;;;;;59.25;41.88;;;;;;;3.47;98.11;103436.44;1036704;28;20320;-78
2022/01/24 02:02:09;;;;;;;57.75;42.10;;;;;;;3.46;97.73;103434.75;1039743;28;20454;-78
2022/01/24 02:02:40;;;;;;;53.65;42.13;;;;;;;3.47;98.14;103435.59;1040210;28;20315;-77
2022/01/24 02:03:12;;;;;;;62.03;40.17;;;;;;;3.51;98.20;103437.06;1036113;28;20827;-78
2022/01/24 02:03:44;;;;;;;56.50;38.40;;;;;;;3.53;97.90;103441.28;1031456;28;20775;-78
2022/01/24 02:04:15;;;;;;;50.38;37.38;;;;;;;3.56;98.09;103445.50;1028535;28;20809;-78
2022/01/24 02:04:47;;;;;;;50.22;35.78;;;;;;;3.53;98.34;103433.38;1032198;28;20313;-78
2022/01/24 02:05:18;;;;;;;59.95;40.42;;;;;;;3.52;98.36;103430.84;1036659;28;20710;-78
2022/01/24 02:05:50;;;;;;;55.22;39.90;;;;;;;3.48;98.39;103438.13;1036511;28;20313;-78
2022/01/24 02:06:23;;;;;;;59.13;41.88;;;;;;;3.46;98.65;103437.41;1035989;28;20308;-78
2022/01/24 02:06:55;;;;;;;59.53;41.53;;;;;;;3.49;98.60;103433.72;1036168;28;20305;-78
2022/01/24 02:07:26;;;;;;;56.03;40.40;;;;;;;3.51;98.71;103431.81;1032459;28;20389;-78
2022/01/24 02:07:57;;;;;;;52.72;38.05;;;;;;;3.52;98.72;103429.06;1036740;28;20664;-79
2022/01/24 02:08:33;;;;;;;50.15;38.97;;;;;;;3.56;99.11;103435.84;1039825;28;20805;-80
2022/01/24 02:09:10;;;;;;;54.00;39.92;;;;;;;3.53;99.09;103430.75;1041148;28;20312;-80
2022/01/24 02:09:44;;;;;;;55.30;38.90;;;;;;;3.57;99.12;103441.94;1039608;28;20311;-78
2022/01/24 02:10:17;;;;;;;56.15;40.80;;;;;;;3.46;98.90;103433.91;1040099;28;20308;-78
2022/01/24 02:10:49;;;;;;;59.17;41.63;;;;;;;3.37;98.82;103428.34;1040241;28;20793;-78
2022/01/24 02:11:21;;;;;;;53.88;39.55;;;;;;;3.46;99.06;103431.28;1039990;28;20311;-78
2022/01/24 02:11:53;;;;;;;54.33;38.72;;;;;;;3.58;98.84;103427.81;1040270;28;20670;-78
2022/01/24 02:12:27;;;;;;;58.25;40.53;;;;;;;3.63;98.87;103425.69;1039858;28;20318;-78
2022/01/24 02:12:58;;;;;;;59.17;41.65;;;;;;;3.60;98.63;103425.91;1040275;28;20886;-78
2022/01/24 02:13:31;;;;;;;55.15;39.47;;;;;;;3.57;98.42;103431.41;1040200;28;20908;-78
2022/01/24 02:14:07;;;;;;;60.38;43.22;;;;;;;3.52;98.37;103426.44;1040416;28;20716;-78
2022/01/24 02:14:46;;;;;;;58.33;39.97;;;;;;;3.48;98.19;103427.59;1039909;28;20316;-77
2022/01/24 02:17:09;;;;;;;51.92;34.50;;;;;;;3.52;98.89;103422.94;1037860;28;20313;-78
2022/01/24 02:17:58;;;;;;;57.88;35.70;;;;;;;3.51;98.81;103423.91;1040075;28;20041;-78
2022/01/24 02:18:52;;;;;;;57.58;35.10;;;;;;;3.50;99.03;103424.84;1036798;28;20316;-78
2022/01/24 02:21:07;;;;;;;46.15;30.67;;;;;;;3.48;98.77;103426.75;1044315;28;20120;-80
2022/01/24 02:23:20;;;;;;;54.47;33.83;;;;;;;3.63;97.77;103428.34;1044310;28;20303;-80
2022/01/24 02:23:52;;;;;;;52.45;31.60;;;;;;;3.65;97.44;103418.53;1044059;28;20786;-80
2022/01/24 02:24:25;;;;;;;55.05;33.70;;;;;;;3.59;97.04;103419.81;1039940;28;20308;-80
2022/01/24 02:25:00;;;;;;;56.47;35.58;;;;;;;3.55;96.34;103417.47;1039786;28;20311;-80
2022/01/24 02:25:33;;;;;;;55.53;34.38;;;;;;;3.50;97.09;103422.22;1040217;28;20319;-80
2022/01/24 02:26:09;;;;;;;41.20;30.77;;;;;;;3.53;96.71;103414.94;1042046;28;20782;-80
2022/01/24 02:26:41;;;;;;;49.38;32.50;;;;;;;3.52;96.79;103418.53;1048355;28;20318;-80
2022/01/24 02:27:15;;;;;;;49.58;31.98;;;;;;;3.51;96.62;103418.63;1043983;28;20669;-80
2022/01/24 02:27:54;;;;;;;55.63;31.92;;;;;;;3.55;96.87;103422.72;1044219;28;20673;-80
2022/01/24 02:28:30;;;;;;;45.95;31.13;;;;;;;3.56;97.42;103414.75;1039888;28;20304;-80
2022/01/24 02:29:21;;;;;;;46.28;31.85;;;;;;;3.57;97.59;103408.53;1042446;28;20308;-80
2022/01/24 02:30:13;;;;;;;43.28;28.60;;;;;;;3.53;97.86;103411.47;1040399;28;20314;-80
2022/01/24 02:31:39;;;;;;;47.85;29.45;;;;;;;3.50;98.39;103416.94;1042136;28;20442;-80
2022/01/24 02:32:12;;;;;;;42.22;27.65;;;;;;;3.32;98.44;103417.28;1038042;28;20795;-80
2022/01/24 02:32:43;;;;;;;45.55;28.48;;;;;;;3.32;98.64;103412.03;1039677;28;20346;-80
2022/01/24 02:33:15;;;;;;;46.67;29.90;;;;;;;3.34;99.14;103412.75;1036875;28;20308;-80
2022/01/24 02:33:48;;;;;;;45.97;30.55;;;;;;;3.33;98.50;103413.72;1034704;28;20308;-80
2022/01/24 02:34:25;;;;;;;50.30;31.73;;;;;;;3.36;98.71;103418.75;1036813;28;20309;-80
2022/01/24 02:34:56;;;;;;;47.80;29.65;;;;;;;3.35;98.99;103417.06;1039785;28;20312;-80
2022/01/24 02:35:28;;;;;;;44.10;31.38;;;;;;;3.35;98.71;103411.81;1037338;28;20309;-81
2022/01/24 02:35:59;;;;;;;40.72;29.02;;;;;;;3.37;98.71;103414.34;1041351;28;20308;-80
2022/01/24 02:36:31;;;;;;;42.60;29.55;;;;;;;3.41;98.69;103413.16;1043878;28;20800;-80
2022/01/24 02:37:13;;;;;;;47.05;31.10;;;;;;;3.33;99.03;103411.06;1040508;28;20319;-80
2022/01/24 02:37:44;;;;;;;45.85;30.13;;;;;;;3.32;98.77;103417.28;1039880;28;20319;-80
2022/01/24 02:40:15;;;;;;;51.30;30.77;;;;;;;3.35;99.74;103417.06;1034178;28;20315;-80
2022/01/24 02:46:01;;;;;;;39.97;27.45;;;;;;;3.39;99.79;103413.28;1039240;28;20331;-80
2022/01/24 02:48:46;;;;;;;56.67;33.60;;;;;;;3.38;100.00;103406.31;1039789;28;20312;-80
2022/01/24 02:49:18;;;;;;;53.63;33.05;;;;;;;3.36;100.00;103408.22;1035978;28;20702;-80
2022/01/24 02:49:49;;;;;;;53.10;31.65;;;;;;;3.30;100.00;103408.66;1031540;28;20320;-80
2022/01/24 02:50:43;;;;;;;55.75;33.08;;;;;;;3.27;100.00;103408.84;1030721;28;20309;-80
2022/01/24 02:51:30;;;;;;;48.40;32.47;;;;;;;3.29;100.00;103406.13;1035238;28;20455;-80
2022/01/24 02:52:07;;;;;;;54.22;33.85;;;;;;;3.26;100.00;103401.03;1040104;28;20678;-80
2022/01/24 02:52:39;;;;;;;54.17;33.08;;;;;;;3.25;100.00;103402.84;1039167;28;20345;-78
2022/01/24 02:53:10;;;;;;;55.08;34.47;;;;;;;3.27;100.00;103400.94;1035662;28;20319;-78
2022/01/24 02:53:42;;;;;;;53.13;35.38;;;;;;;3.29;100.00;103400.84;1030956;28;20321;-78
2022/01/24 02:54:21;;;;;;;55.33;35.50;;;;;;;3.29;100.00;103400.84;1032197;28;20310;-78
2022/01/24 02:54:52;;;;;;;51.45;35.08;;;;;;;3.32;100.00;103403.28;1037021;28;20301;-78
2022/01/24 02:55:24;;;;;;;53.88;36.03;;;;;;;3.30;100.00;103398.13;1037286;28;20313;-78
2022/01/24 02:55:56;;;;;;;56.85;35.00;;;;;;;3.28;99.95;103402.63;1035725;28;20308;-78
2022/01/24 02:56:27;;;;;;;53.40;35.90;;;;;;;3.28;99.79;103404.41;1027580;28;20812;-78
2022/01/24 02:56:59;;;;;;;52.03;37.15;;;;;;;3.27;99.98;103392.19;1028184;28;20675;-78
2022/01/24 02:57:31;;;;;;;59.17;38.00;;;;;;;3.26;99.87;103396.63;1032248;28;20309;-78
2022/01/24 02:58:03;;;;;;;51.83;36.05;;;;;;;3.28;99.73;103397.34;1032360;28;20312;-78
2022/01/24 02:58:35;;;;;;;52.22;37.10;;;;;;;3.28;99.87;103402.63;1036538;28;20678;-78
2022/01/24 02:59:06;;;;;;;56.15;39.67;;;;;;;3.28;100.00;103405.25;1035740;28;20494;-78
2022/01/24 02:59:38;;;;;;;51.75;38.13;;;;;;;3.27;99.73;103395.66;1032483;28;20309;-78
2022/01/24 03:00:10;;;;;;;51.22;37.53;;;;;;;3.28;99.83;103394.72;1031667;28;20320;-78
2022/01/24 03:00:42;;;;;;;56.88;40.65;;;;;;;3.31;99.88;103396.31;1032338;28;20309;-79
2022/01/24 03:01:14;;;;;;;56.60;39.67;;;;;;;3.37;99.31;103394.09;1036401;28;20312;-78
2022/01/24 03:01:46;;;;;;;61.55;41.67;;;;;;;3.30;99.42;103395.47;1039856;28;20304;-78
2022/01/24 03:02:18;;;;;;;58.58;41.65;;;;;;;3.28;99.36;103394.72;1039613;28;20908;-78
2022/01/24 03:02:50;;;;;;;59.70;41.92;;;;;;;3.31;99.58;103398.97;1035754;28;20316;-78
2022/01/24 03:03:22;;;;;;;59.40;42.38;;;;;;;3.28;99.37;103393.88;1031486;28;20312;-78
2022/01/24 03:03:53;;;;;;;56.00;41.30;;;;;;;3.27;99.50;103398.31;1031099;28;20356;-78
2022/01/24 03:04:25;;;;;;;62.13;43.20;;;;;;;3.28;99.60;103405.25;1035884;28;20311;-78
2022/01/24 03:04:57;;;;;;;60.08;45.08;;;;;;;3.33;99.88;103400.53;1032170;28;20680;-78
2022/01/24 03:05:29;;;;;;;58.47;43.47;;;;;;;3.34;99.67;103402.22;1032324;28;20312;-78
2022/01/24 03:06:00;;;;;;;59.38;41.78;;;;;;;3.33;99.68;103391.78;1035779;28;20315;-78
2022/01/24 03:06:32;;;;;;;60.33;44.22;;;;;;;3.32;99.55;103401.47;1036220;28;20313;-78
2022/01/24 03:07:03;;;;;;;61.85;44.58;;;;;;;3.29;100.00;103399.06;1040015;28;20308;-78
2022/01/24 03:07:35;;;;;;;59.40;45.15;;;;;;;3.33;99.91;103397.91;1040072;28;20315;-78
2022/01/24 03:08:07;;;;;;;65.07;48.75;;;;;;;3.35;99.65;103398.63;1040229;28;20504;-78
2022/01/24 03:08:40;;;;;;;62.22;45.95;;;;;;;3.37;99.75;103399.38;1039650;28;20303;-78
2022/01/24 03:09:12;;;;;;;62.45;43.90;;;;;;;3.38;99.70;103397.56;1039865;28;20303;-78
2022/01/24 03:09:45;;;;;;;62.03;44.90;;;;;;;3.41;100.00;103398.19;1036003;28;20703;-78
2022/01/24 03:10:51;;;;;;;63.05;44.17;;;;;;;3.39;99.93;103394.00;1032552;28;20795;-78
2022/01/24 03:11:15;;;;;;;55.15;39.38;;;;;;;3.37;99.77;103399.38;1034497;28;20312;-78
2022/01/24 03:12:41;;;;;;;65.15;47.45;;;;;;;3.37;100.00;103394.09;1031414;28;20305;-78
2022/01/24 03:13:46;;;;;;;61.95;42.63;;;;;;;3.32;99.87;103398.00;1034972;28;20311;-78
2022/01/24 03:14:20;;;;;;;67.43;47.85;;;;;;;3.36;99.89;103399.47;1035520;28;20322;-78
2022/01/24 03:14:52;;;;;;;66.05;45.78;;;;;;;3.41;100.00;103400.84;1036687;28;20305;-78
2022/01/24 03:15:24;;;;;;;65.13;48.22;;;;;;;3.42;99.76;103396.41;1039513;28;20304;-78
2022/01/24 03:15:57;;;;;;;59.33;44.38;;;;;;;3.38;99.75;103400.22;1039752;28;20650;-78
2022/01/24 03:16:29;;;;;;;68.80;47.33;;;;;;;3.35;99.63;103409.16;1039621;28;20314;-78
2022/01/24 03:17:03;;;;;;;58.08;42.42;;;;;;;3.31;99.69;103405.06;1039974;28;20792;-78
2022/01/24 03:17:34;;;;;;;69.63;45.95;;;;;;;3.32;99.52;103404.13;1039698;28;20323;-78
2022/01/24 03:18:07;;;;;;;64.05;46.40;;;;;;;3.29;99.61;103401.69;1039947;28;20669;-78
2022/01/24 03:18:39;;;;;;;62.72;46.47;;;;;;;3.32;99.79;103401.47;1039669;28;20304;-78
2022/01/24 03:19:11;;;;;;;61.42;43.83;;;;;;;3.45;99.51;103395.34;1039961;28;20304;-78
2022/01/24 03:19:42;;;;;;;59.22;43.17;;;;;;;3.51;99.31;103400.19;1035881;28;20652;-79
2022/01/24 03:20:14;;;;;;;65.15;44.90;;;;;;;3.47;99.26;103396.09;1032211;28;20320;-77
2022/01/24 03:20:46;;;;;;;55.50;43.17;;;;;;;3.46;99.03;103392.59;1031734;28;20308;-78
2022/01/24 03:21:19;;;;;;;62.45;46.88;;;;;;;3.42;99.22;103397.25;1028062;28;20327;-78
2022/01/24 03:21:52;;;;;;;59.83;46.45;;;;;;;3.38;98.75;103395.78;1032503;28;20309;-78
2022/01/24 03:22:23;;;;;;;62.15;47.28;;;;;;;3.43;98.80;103392.81;1036467;28;20317;-77
2022/01/24 03:22:54;;;;;;;58.30;45.05;;;;;;;3.39;98.80;103394.84;1039655;28;20311;-78
2022/01/24 03:23:26;;;;;;;65.18;45.50;;;;;;;3.36;98.51;103397.69;1039857;28;20669;-78
2022/01/24 03:23:58;;;;;;;62.95;47.13;;;;;;;3.37;98.35;103399.38;1035327;28;20670;-78
2022/01/24 03:24:29;;;;;;;61.92;45.72;;;;;;;3.36;98.80;103400.31;1031337;28;20381;-78
2022/01/24 03:25:01;;;;;;;58.47;45.47;;;;;;;3.40;98.77;103393.03;1031966;28;20313;-78
2022/01/24 03:25:32;;;;;;;60.40;46.25;;;;;;;3.36;98.94;103397.69;1032296;28;20798;-78
2022/01/24 03:26:04;;;;;;;61.80;46.35;;;;;;;3.37;98.66;103390.63;1035953;28;20319;-78
2022/01/24 03:26:35;;;;;;;61.75;45.20;;;;;;;3.37;98.88;103390.63;1039898;28;20342;-79
2022/01/24 03:27:07;;;;;;;61.78;46.97;;;;;;;3.38;98.97;103387.03;1039876;28;20311;-78
2022/01/24 03:27:38;;;;;;;58.38;44.15;;;;;;;3.38;99.43;103390.50;1040119;28;20304;-78
2022/01/24 03:28:10;;;;;;;59.15;42.92;;;;;;;3.37;99.00;103398.53;1040141;28;20300;-78
2022/01/24 03:28:42;;;;;;;58.15;44.63;;;;;;;3.36;99.88;103391.56;1039585;28;20319;-78
2022/01/24 03:29:14;;;;;;;65.28;46.20;;;;;;;3.34;99.43;103396.09;1039694;28;20358;-78
2022/01/24 03:29:45;;;;;;;67.93;48.30;;;;;;;3.34;99.66;103394.31;1035816;28;20308;-78
2022/01/24 03:30:17;;;;;;;62.47;46.95;;;;;;;3.34;99.77;103393.47;1036057;28;20308;-78
2022/01/24 03:30:49;;;;;;;65.65;48.42;;;;;;;3.36;99.73;103396.84;1039976;28;20724;-78
2022/01/24 03:31:20;;;;;;;62.92;47.90;;;;;;;3.38;99.69;103395.78;1040056;28;20304;-78
2022/01/24 03:31:52;;;;;;;64.43;49.47;;;;;;;3.37;99.59;103398.53;1039882;28;20308;-77
2022/01/24 03:32:24;;;;;;;63.80;48.10;;;;;;;3.33;99.66;103397.91;1035882;28;20315;-78
2022/01/24 03:32:56;;;;;;;60.97;47.95;;;;;;;3.35;99.66;103401.28;1031672;28;20379;-78
2022/01/24 03:33:27;;;;;;;63.13;48.00;;;;;;;3.30;99.42;103403.38;1032079;28;20356;-78
2022/01/24 03:33:59;;;;;;;59.38;46.13;;;;;;;3.32;99.45;103401.47;1035998;28;20645;-78
2022/01/24 03:34:30;;;;;;;63.88;48.65;;;;;;;3.35;99.56;103401.28;1039768;28;20303;-78
2022/01/24 03:35:07;;;;;;;59.88;48.35;;;;;;;3.35;99.63;103396.00;1039816;28;20760;-78
2022/01/24 03:35:43;;;;;;;69.47;50.50;;;;;;;3.39;99.85;103405.38;1039792;28;20821;-78
2022/01/24 03:36:15;;;;;;;62.33;49.60;;;;;;;3.39;99.56;103402.75;1035657;28;20308;-78
2022/01/24 03:36:47;;;;;;;64.60;48.50;;;;;;;3.36;99.71;103392.41;1035555;28;20319;-78
2022/01/24 03:37:18;;;;;;;67.35;48.92;;;;;;;3.35;99.54;103396.00;1037457;28;20319;-78
2022/01/24 03:37:49;;;;;;;62.72;46.65;;;;;;;3.37;99.70;103396.72;1039624;28;20308;-78
2022/01/24 03:38:23;;;;;;;59.33;47.92;;;;;;;3.38;99.43;103394.94;1040201;28;20308;-78
2022/01/24 03:38:54;;;;;;;62.97;49.05;;;;;;;3.34;99.48;103393.47;1039903;28;20331;-78
2022/01/24 03:39:26;;;;;;;64.53;48.38;;;;;;;3.26;99.57;103393.97;1040065;28;20650;-78
2022/01/24 03:39:57;;;;;;;63.25;49.53;;;;;;;3.31;99.24;103394.53;1040054;28;20311;-78
2022/01/24 03:40:29;;;;;;;67.15;49.13;;;;;;;3.34;99.22;103390.84;1039598;28;20307;-78
2022/01/24 03:41:00;;;;;;;61.28;49.40;;;;;;;3.40;98.98;103396.53;1040011;28;20304;-79
2022/01/24 03:41:32;;;;;;;66.15;50.15;;;;;;;3.41;98.93;103390.31;1039875;28;20312;-78